sensor_id;sensor_type;location;lat;lon;timestamp;P1;durP1;ratioP1;P2;durP2;ratioP2
9934;SDS011;5006;41.828;23.478;2022-07-06T00:00:57;12.73;;;11.10;;
9934;SDS011;5006;41.828;23.478;2022-07-06T00:02:03;13.85;;;12.00;;
9934;SDS011;5006;41.828;23.478;2022-07-06T00:03:08;14.20;;;12.90;;
9934;SDS011;5006;41.828;23.478;2022-07-06T00:04:14;14.40;;;13.00;;
9934;SDS011;5006;41.828;23.478;2022-07-06T00:05:20;13.70;;;12.38;;
9934;SDS011;5006;41.828;23.478;2022-07-06T00:06:26;13.38;;;12.07;;
9934;SDS011;5006;41.828;23.478;2022-07-06T00:07:31;12.25;;;11.10;;
9934;SDS011;5006;41.828;23.478;2022-07-06T00:08:37;11.82;;;10.73;;
9934;SDS011;5006;41.828;23.478;2022-07-06T00:09:42;13.07;;;11.77;;
9934;SDS011;5006;41.828;23.478;2022-07-06T00:10:48;11.13;;;10.23;;
9934;SDS011;5006;41.828;23.478;2022-07-06T00:11:52;9.90;;;9.00;;
9934;SDS011;5006;41.828;23.478;2022-07-06T00:12:58;9.55;;;8.65;;
9934;SDS011;5006;41.828;23.478;2022-07-06T00:14:03;9.77;;;8.88;;
9934;SDS011;5006;41.828;23.478;2022-07-06T00:15:09;10.63;;;9.65;;
9934;SDS011;5006;41.828;23.478;2022-07-06T00:16:15;12.35;;;11.15;;
9934;SDS011;5006;41.828;23.478;2022-07-06T00:17:20;12.05;;;10.88;;
9934;SDS011;5006;41.828;23.478;2022-07-06T00:18:26;12.43;;;11.18;;
9934;SDS011;5006;41.828;23.478;2022-07-06T00:19:31;12.40;;;11.18;;
9934;SDS011;5006;41.828;23.478;2022-07-06T00:20:38;12.30;;;11.05;;
9934;SDS011;5006;41.828;23.478;2022-07-06T00:21:43;12.75;;;11.65;;
9934;SDS011;5006;41.828;23.478;2022-07-06T00:22:48;11.77;;;10.57;;
9934;SDS011;5006;41.828;23.478;2022-07-06T00:23:54;11.80;;;10.70;;
9934;SDS011;5006;41.828;23.478;2022-07-06T00:25:01;11.43;;;10.35;;
9934;SDS011;5006;41.828;23.478;2022-07-06T00:26:07;10.90;;;9.77;;
9934;SDS011;5006;41.828;23.478;2022-07-06T00:27:11;9.43;;;8.52;;
9934;SDS011;5006;41.828;23.478;2022-07-06T00:28:18;7.88;;;7.18;;
9934;SDS011;5006;41.828;23.478;2022-07-06T00:29:23;7.75;;;7.13;;
9934;SDS011;5006;41.828;23.478;2022-07-06T00:30:29;7.03;;;6.32;;
9934;SDS011;5006;41.828;23.478;2022-07-06T00:31:34;8.32;;;7.53;;
9934;SDS011;5006;41.828;23.478;2022-07-06T00:32:40;8.30;;;7.60;;
9934;SDS011;5006;41.828;23.478;2022-07-06T00:33:45;9.18;;;8.27;;
9934;SDS011;5006;41.828;23.478;2022-07-06T00:34:50;9.40;;;8.60;;
9934;SDS011;5006;41.828;23.478;2022-07-06T00:35:56;9.75;;;8.88;;
9934;SDS011;5006;41.828;23.478;2022-07-06T00:37:02;9.38;;;8.40;;
9934;SDS011;5006;41.828;23.478;2022-07-06T00:38:08;9.75;;;8.95;;
9934;SDS011;5006;41.828;23.478;2022-07-06T00:39:13;10.35;;;9.45;;
9934;SDS011;5006;41.828;23.478;2022-07-06T00:40:19;11.63;;;10.45;;
9934;SDS011;5006;41.828;23.478;2022-07-06T00:41:24;11.23;;;10.25;;
9934;SDS011;5006;41.828;23.478;2022-07-06T00:42:38;15.27;;;13.77;;
9934;SDS011;5006;41.828;23.478;2022-07-06T00:43:47;19.08;;;17.20;;
9934;SDS011;5006;41.828;23.478;2022-07-06T00:44:53;19.33;;;17.58;;
9934;SDS011;5006;41.828;23.478;2022-07-06T00:45:59;20.35;;;18.38;;
9934;SDS011;5006;41.828;23.478;2022-07-06T00:47:04;21.33;;;19.13;;
9934;SDS011;5006;41.828;23.478;2022-07-06T00:48:11;20.95;;;18.75;;
9934;SDS011;5006;41.828;23.478;2022-07-06T00:49:17;21.05;;;18.80;;
9934;SDS011;5006;41.828;23.478;2022-07-06T00:50:37;21.13;;;19.10;;
9934;SDS011;5006;41.828;23.478;2022-07-06T00:51:44;22.23;;;20.00;;
9934;SDS011;5006;41.828;23.478;2022-07-06T00:52:50;21.88;;;19.65;;
9934;SDS011;5006;41.828;23.478;2022-07-06T00:53:59;21.42;;;19.30;;
9934;SDS011;5006;41.828;23.478;2022-07-06T00:55:06;21.42;;;19.33;;
9934;SDS011;5006;41.828;23.478;2022-07-06T00:56:13;20.83;;;18.65;;
9934;SDS011;5006;41.828;23.478;2022-07-06T00:57:18;19.98;;;17.90;;
9934;SDS011;5006;41.828;23.478;2022-07-06T00:58:24;18.98;;;17.10;;
9934;SDS011;5006;41.828;23.478;2022-07-06T00:59:29;19.33;;;17.33;;
9934;SDS011;5006;41.828;23.478;2022-07-06T01:00:35;19.88;;;17.75;;
9934;SDS011;5006;41.828;23.478;2022-07-06T01:01:40;19.48;;;17.35;;
9934;SDS011;5006;41.828;23.478;2022-07-06T01:02:46;19.27;;;17.35;;
9934;SDS011;5006;41.828;23.478;2022-07-06T01:03:51;19.75;;;17.67;;
9934;SDS011;5006;41.828;23.478;2022-07-06T01:04:57;18.85;;;17.13;;
9934;SDS011;5006;41.828;23.478;2022-07-06T01:06:02;19.65;;;17.85;;
9934;SDS011;5006;41.828;23.478;2022-07-06T01:07:09;19.20;;;17.55;;
9934;SDS011;5006;41.828;23.478;2022-07-06T01:08:14;19.25;;;17.20;;
9934;SDS011;5006;41.828;23.478;2022-07-06T01:09:20;19.98;;;17.92;;
9934;SDS011;5006;41.828;23.478;2022-07-06T01:10:25;22.63;;;18.33;;
9934;SDS011;5006;41.828;23.478;2022-07-06T01:11:31;19.27;;;17.17;;
9934;SDS011;5006;41.828;23.478;2022-07-06T01:12:36;17.30;;;15.48;;
9934;SDS011;5006;41.828;23.478;2022-07-06T01:13:42;17.67;;;15.90;;
9934;SDS011;5006;41.828;23.478;2022-07-06T01:14:48;17.45;;;15.80;;
9934;SDS011;5006;41.828;23.478;2022-07-06T01:15:53;16.80;;;15.07;;
9934;SDS011;5006;41.828;23.478;2022-07-06T01:16:59;16.65;;;14.82;;
9934;SDS011;5006;41.828;23.478;2022-07-06T01:18:04;16.23;;;14.73;;
9934;SDS011;5006;41.828;23.478;2022-07-06T01:19:10;16.08;;;14.50;;
9934;SDS011;5006;41.828;23.478;2022-07-06T01:20:16;15.23;;;13.75;;
9934;SDS011;5006;41.828;23.478;2022-07-06T01:21:23;16.15;;;14.65;;
9934;SDS011;5006;41.828;23.478;2022-07-06T01:22:28;15.15;;;13.65;;
9934;SDS011;5006;41.828;23.478;2022-07-06T01:23:37;15.02;;;13.63;;
9934;SDS011;5006;41.828;23.478;2022-07-06T01:24:44;13.90;;;12.68;;
9934;SDS011;5006;41.828;23.478;2022-07-06T01:25:48;14.82;;;13.35;;
9934;SDS011;5006;41.828;23.478;2022-07-06T01:26:55;15.18;;;13.68;;
9934;SDS011;5006;41.828;23.478;2022-07-06T01:28:01;14.93;;;13.52;;
9934;SDS011;5006;41.828;23.478;2022-07-06T01:29:08;15.43;;;13.93;;
9934;SDS011;5006;41.828;23.478;2022-07-06T01:30:14;14.80;;;13.40;;
9934;SDS011;5006;41.828;23.478;2022-07-06T01:31:21;14.25;;;13.05;;
9934;SDS011;5006;41.828;23.478;2022-07-06T01:32:28;14.75;;;13.35;;
9934;SDS011;5006;41.828;23.478;2022-07-06T01:33:34;14.70;;;13.40;;
9934;SDS011;5006;41.828;23.478;2022-07-06T01:34:40;15.02;;;13.63;;
9934;SDS011;5006;41.828;23.478;2022-07-06T01:35:47;15.45;;;13.95;;
9934;SDS011;5006;41.828;23.478;2022-07-06T01:36:54;15.45;;;13.95;;
9934;SDS011;5006;41.828;23.478;2022-07-06T01:38:00;14.70;;;13.40;;
9934;SDS011;5006;41.828;23.478;2022-07-06T01:39:04;14.93;;;13.50;;
9934;SDS011;5006;41.828;23.478;2022-07-06T01:40:11;15.50;;;14.07;;
9934;SDS011;5006;41.828;23.478;2022-07-06T01:41:17;15.00;;;13.70;;
9934;SDS011;5006;41.828;23.478;2022-07-06T01:42:23;14.15;;;12.95;;
9934;SDS011;5006;41.828;23.478;2022-07-06T01:43:28;13.25;;;12.05;;
9934;SDS011;5006;41.828;23.478;2022-07-06T01:44:33;13.98;;;12.77;;
9934;SDS011;5006;41.828;23.478;2022-07-06T01:45:38;13.30;;;12.10;;
9934;SDS011;5006;41.828;23.478;2022-07-06T01:46:45;14.35;;;12.98;;
9934;SDS011;5006;41.828;23.478;2022-07-06T01:47:51;13.38;;;12.07;;
9934;SDS011;5006;41.828;23.478;2022-07-06T01:48:57;11.65;;;10.55;;
9934;SDS011;5006;41.828;23.478;2022-07-06T01:50:03;11.88;;;10.88;;
9934;SDS011;5006;41.828;23.478;2022-07-06T01:51:14;12.85;;;11.75;;
9934;SDS011;5006;41.828;23.478;2022-07-06T01:52:22;11.93;;;10.77;;
9934;SDS011;5006;41.828;23.478;2022-07-06T01:53:27;12.13;;;10.80;;
9934;SDS011;5006;41.828;23.478;2022-07-06T01:54:32;11.55;;;10.55;;
9934;SDS011;5006;41.828;23.478;2022-07-06T01:55:38;11.55;;;10.55;;
9934;SDS011;5006;41.828;23.478;2022-07-06T01:56:43;12.65;;;10.98;;
9934;SDS011;5006;41.828;23.478;2022-07-06T01:57:49;11.88;;;10.65;;
9934;SDS011;5006;41.828;23.478;2022-07-06T01:58:54;11.40;;;10.43;;
9934;SDS011;5006;41.828;23.478;2022-07-06T02:00:01;11.73;;;10.68;;
9934;SDS011;5006;41.828;23.478;2022-07-06T02:01:17;10.93;;;9.95;;
9934;SDS011;5006;41.828;23.478;2022-07-06T02:02:24;10.10;;;9.20;;
9934;SDS011;5006;41.828;23.478;2022-07-06T02:03:29;10.27;;;9.35;;
9934;SDS011;5006;41.828;23.478;2022-07-06T02:04:38;9.82;;;8.95;;
9934;SDS011;5006;41.828;23.478;2022-07-06T02:05:44;9.43;;;8.55;;
9934;SDS011;5006;41.828;23.478;2022-07-06T02:06:50;9.70;;;8.82;;
9934;SDS011;5006;41.828;23.478;2022-07-06T02:07:56;9.20;;;8.30;;
9934;SDS011;5006;41.828;23.478;2022-07-06T02:09:02;8.82;;;8.02;;
9934;SDS011;5006;41.828;23.478;2022-07-06T02:10:07;8.13;;;7.32;;
9934;SDS011;5006;41.828;23.478;2022-07-06T02:11:13;8.30;;;7.60;;
9934;SDS011;5006;41.828;23.478;2022-07-06T02:12:21;8.23;;;7.53;;
9934;SDS011;5006;41.828;23.478;2022-07-06T02:13:28;7.80;;;7.10;;
9934;SDS011;5006;41.828;23.478;2022-07-06T02:14:33;7.70;;;7.03;;
9934;SDS011;5006;41.828;23.478;2022-07-06T02:15:39;7.60;;;6.90;;
9934;SDS011;5006;41.828;23.478;2022-07-06T02:16:43;7.88;;;7.07;;
9934;SDS011;5006;41.828;23.478;2022-07-06T02:17:49;7.60;;;7.00;;
9934;SDS011;5006;41.828;23.478;2022-07-06T02:18:55;7.70;;;6.90;;
9934;SDS011;5006;41.828;23.478;2022-07-06T02:20:00;7.13;;;6.60;;
9934;SDS011;5006;41.828;23.478;2022-07-06T02:21:06;7.32;;;6.65;;
9934;SDS011;5006;41.828;23.478;2022-07-06T02:22:12;7.10;;;6.50;;
9934;SDS011;5006;41.828;23.478;2022-07-06T02:23:18;7.00;;;6.40;;
9934;SDS011;5006;41.828;23.478;2022-07-06T02:24:23;7.15;;;6.55;;
9934;SDS011;5006;41.828;23.478;2022-07-06T02:25:29;7.28;;;6.65;;
9934;SDS011;5006;41.828;23.478;2022-07-06T02:26:34;7.18;;;6.50;;
9934;SDS011;5006;41.828;23.478;2022-07-06T02:27:39;6.80;;;6.20;;
9934;SDS011;5006;41.828;23.478;2022-07-06T02:28:47;5.90;;;5.40;;
9934;SDS011;5006;41.828;23.478;2022-07-06T02:29:53;6.90;;;6.20;;
9934;SDS011;5006;41.828;23.478;2022-07-06T02:30:58;7.15;;;5.53;;
9934;SDS011;5006;41.828;23.478;2022-07-06T02:32:05;6.50;;;5.90;;
9934;SDS011;5006;41.828;23.478;2022-07-06T02:33:11;6.40;;;5.82;;
9934;SDS011;5006;41.828;23.478;2022-07-06T02:34:16;7.00;;;5.80;;
9934;SDS011;5006;41.828;23.478;2022-07-06T02:35:22;12.05;;;6.03;;
9934;SDS011;5006;41.828;23.478;2022-07-06T02:36:27;6.18;;;5.65;;
9934;SDS011;5006;41.828;23.478;2022-07-06T02:37:34;6.93;;;5.80;;
9934;SDS011;5006;41.828;23.478;2022-07-06T02:38:40;6.05;;;5.55;;
9934;SDS011;5006;41.828;23.478;2022-07-06T02:39:45;6.07;;;5.55;;
9934;SDS011;5006;41.828;23.478;2022-07-06T02:40:51;7.32;;;5.70;;
9934;SDS011;5006;41.828;23.478;2022-07-06T02:41:55;6.25;;;5.75;;
9934;SDS011;5006;41.828;23.478;2022-07-06T02:43:01;5.97;;;5.40;;
9934;SDS011;5006;41.828;23.478;2022-07-06T02:44:06;5.85;;;5.35;;
9934;SDS011;5006;41.828;23.478;2022-07-06T02:45:12;5.88;;;5.38;;
9934;SDS011;5006;41.828;23.478;2022-07-06T02:46:17;6.10;;;5.43;;
9934;SDS011;5006;41.828;23.478;2022-07-06T02:47:23;5.40;;;5.00;;
9934;SDS011;5006;41.828;23.478;2022-07-06T02:48:30;5.78;;;5.28;;
9934;SDS011;5006;41.828;23.478;2022-07-06T02:49:35;5.65;;;5.15;;
9934;SDS011;5006;41.828;23.478;2022-07-06T02:50:40;7.53;;;5.35;;
9934;SDS011;5006;41.828;23.478;2022-07-06T02:51:46;5.13;;;4.65;;
9934;SDS011;5006;41.828;23.478;2022-07-06T02:52:52;8.00;;;5.38;;
9934;SDS011;5006;41.828;23.478;2022-07-06T02:53:59;5.75;;;4.97;;
9934;SDS011;5006;41.828;23.478;2022-07-06T02:55:04;6.03;;;4.88;;
9934;SDS011;5006;41.828;23.478;2022-07-06T02:56:11;5.20;;;4.80;;
9934;SDS011;5006;41.828;23.478;2022-07-06T02:57:18;7.40;;;4.90;;
9934;SDS011;5006;41.828;23.478;2022-07-06T02:58:22;4.95;;;4.55;;
9934;SDS011;5006;41.828;23.478;2022-07-06T02:59:29;5.28;;;4.45;;
9934;SDS011;5006;41.828;23.478;2022-07-06T03:00:34;5.38;;;4.90;;
9934;SDS011;5006;41.828;23.478;2022-07-06T03:01:41;6.43;;;4.93;;
9934;SDS011;5006;41.828;23.478;2022-07-06T03:02:46;5.25;;;4.75;;
9934;SDS011;5006;41.828;23.478;2022-07-06T03:03:52;6.38;;;4.65;;
9934;SDS011;5006;41.828;23.478;2022-07-06T03:04:57;5.32;;;4.82;;
9934;SDS011;5006;41.828;23.478;2022-07-06T03:06:05;4.93;;;4.53;;
9934;SDS011;5006;41.828;23.478;2022-07-06T03:07:10;7.20;;;4.65;;
9934;SDS011;5006;41.828;23.478;2022-07-06T03:08:18;5.03;;;4.55;;
9934;SDS011;5006;41.828;23.478;2022-07-06T03:09:22;4.75;;;4.22;;
9934;SDS011;5006;41.828;23.478;2022-07-06T03:10:27;6.20;;;4.88;;
9934;SDS011;5006;41.828;23.478;2022-07-06T03:11:33;5.88;;;4.57;;
9934;SDS011;5006;41.828;23.478;2022-07-06T03:12:41;5.75;;;4.85;;
9934;SDS011;5006;41.828;23.478;2022-07-06T03:13:45;6.15;;;4.40;;
9934;SDS011;5006;41.828;23.478;2022-07-06T03:14:51;5.25;;;4.30;;
9934;SDS011;5006;41.828;23.478;2022-07-06T03:15:57;5.75;;;3.97;;
9934;SDS011;5006;41.828;23.478;2022-07-06T03:17:03;5.60;;;4.57;;
9934;SDS011;5006;41.828;23.478;2022-07-06T03:18:08;5.15;;;4.53;;
9934;SDS011;5006;41.828;23.478;2022-07-06T03:19:13;5.60;;;4.55;;
9934;SDS011;5006;41.828;23.478;2022-07-06T03:20:18;4.55;;;4.05;;
9934;SDS011;5006;41.828;23.478;2022-07-06T03:21:24;4.82;;;4.43;;
9934;SDS011;5006;41.828;23.478;2022-07-06T03:22:29;4.70;;;4.20;;
9934;SDS011;5006;41.828;23.478;2022-07-06T03:23:37;5.03;;;4.50;;
9934;SDS011;5006;41.828;23.478;2022-07-06T03:24:43;8.13;;;4.55;;
9934;SDS011;5006;41.828;23.478;2022-07-06T03:25:48;4.93;;;4.22;;
9934;SDS011;5006;41.828;23.478;2022-07-06T03:26:54;4.68;;;4.28;;
9934;SDS011;5006;41.828;23.478;2022-07-06T03:27:59;4.53;;;4.13;;
9934;SDS011;5006;41.828;23.478;2022-07-06T03:29:05;4.50;;;4.10;;
9934;SDS011;5006;41.828;23.478;2022-07-06T03:30:09;4.65;;;3.88;;
9934;SDS011;5006;41.828;23.478;2022-07-06T03:31:16;4.57;;;4.25;;
9934;SDS011;5006;41.828;23.478;2022-07-06T03:32:21;4.30;;;3.90;;
9934;SDS011;5006;41.828;23.478;2022-07-06T03:33:28;4.28;;;3.70;;
9934;SDS011;5006;41.828;23.478;2022-07-06T03:34:34;5.88;;;4.25;;
9934;SDS011;5006;41.828;23.478;2022-07-06T03:35:39;5.05;;;4.55;;
9934;SDS011;5006;41.828;23.478;2022-07-06T03:36:46;4.82;;;4.00;;
9934;SDS011;5006;41.828;23.478;2022-07-06T03:37:53;5.38;;;4.25;;
9934;SDS011;5006;41.828;23.478;2022-07-06T03:39:01;7.50;;;4.45;;
9934;SDS011;5006;41.828;23.478;2022-07-06T03:40:08;5.63;;;4.00;;
9934;SDS011;5006;41.828;23.478;2022-07-06T03:41:14;4.45;;;4.03;;
9934;SDS011;5006;41.828;23.478;2022-07-06T03:42:20;4.70;;;3.70;;
9934;SDS011;5006;41.828;23.478;2022-07-06T03:43:25;8.73;;;4.07;;
9934;SDS011;5006;41.828;23.478;2022-07-06T03:44:31;4.18;;;3.78;;
9934;SDS011;5006;41.828;23.478;2022-07-06T03:45:36;4.97;;;4.57;;
9934;SDS011;5006;41.828;23.478;2022-07-06T03:46:43;5.13;;;4.72;;
9934;SDS011;5006;41.828;23.478;2022-07-06T03:47:47;5.40;;;4.20;;
9934;SDS011;5006;41.828;23.478;2022-07-06T03:48:53;4.75;;;4.13;;
9934;SDS011;5006;41.828;23.478;2022-07-06T03:49:58;5.68;;;4.88;;
9934;SDS011;5006;41.828;23.478;2022-07-06T03:51:03;5.30;;;4.80;;
9934;SDS011;5006;41.828;23.478;2022-07-06T03:52:09;7.13;;;5.00;;
9934;SDS011;5006;41.828;23.478;2022-07-06T03:53:21;6.38;;;5.78;;
9934;SDS011;5006;41.828;23.478;2022-07-06T03:54:28;6.57;;;5.97;;
9934;SDS011;5006;41.828;23.478;2022-07-06T03:55:35;8.20;;;6.13;;
9934;SDS011;5006;41.828;23.478;2022-07-06T03:56:45;8.40;;;7.03;;
9934;SDS011;5006;41.828;23.478;2022-07-06T03:57:52;7.75;;;6.95;;
9934;SDS011;5006;41.828;23.478;2022-07-06T03:59:00;10.82;;;7.93;;
9934;SDS011;5006;41.828;23.478;2022-07-06T04:00:10;8.80;;;7.90;;
9934;SDS011;5006;41.828;23.478;2022-07-06T04:01:23;7.38;;;6.65;;
9934;SDS011;5006;41.828;23.478;2022-07-06T04:02:28;11.48;;;7.72;;
9934;SDS011;5006;41.828;23.478;2022-07-06T04:03:34;8.05;;;7.28;;
9934;SDS011;5006;41.828;23.478;2022-07-06T04:04:40;7.63;;;6.93;;
9934;SDS011;5006;41.828;23.478;2022-07-06T04:05:46;7.68;;;6.72;;
9934;SDS011;5006;41.828;23.478;2022-07-06T04:06:51;6.78;;;6.15;;
9934;SDS011;5006;41.828;23.478;2022-07-06T04:07:57;7.97;;;6.40;;
9934;SDS011;5006;41.828;23.478;2022-07-06T04:09:08;8.25;;;6.88;;
9934;SDS011;5006;41.828;23.478;2022-07-06T04:10:17;10.63;;;6.38;;
9934;SDS011;5006;41.828;23.478;2022-07-06T04:11:22;7.45;;;6.78;;
9934;SDS011;5006;41.828;23.478;2022-07-06T04:12:28;7.85;;;7.20;;
9934;SDS011;5006;41.828;23.478;2022-07-06T04:13:33;8.35;;;7.10;;
9934;SDS011;5006;41.828;23.478;2022-07-06T04:14:40;7.68;;;6.50;;
9934;SDS011;5006;41.828;23.478;2022-07-06T04:15:46;6.72;;;6.07;;
9934;SDS011;5006;41.828;23.478;2022-07-06T04:16:50;7.88;;;6.90;;
9934;SDS011;5006;41.828;23.478;2022-07-06T04:17:57;7.95;;;7.28;;
9934;SDS011;5006;41.828;23.478;2022-07-06T04:19:07;8.50;;;7.70;;
9934;SDS011;5006;41.828;23.478;2022-07-06T04:20:14;8.63;;;7.82;;
9934;SDS011;5006;41.828;23.478;2022-07-06T04:21:18;8.65;;;7.80;;
9934;SDS011;5006;41.828;23.478;2022-07-06T04:22:25;9.10;;;8.23;;
9934;SDS011;5006;41.828;23.478;2022-07-06T04:23:30;8.50;;;7.80;;
9934;SDS011;5006;41.828;23.478;2022-07-06T04:24:36;9.40;;;8.13;;
9934;SDS011;5006;41.828;23.478;2022-07-06T04:25:42;9.93;;;8.98;;
9934;SDS011;5006;41.828;23.478;2022-07-06T04:26:50;9.55;;;8.65;;
9934;SDS011;5006;41.828;23.478;2022-07-06T04:27:55;9.07;;;8.27;;
9934;SDS011;5006;41.828;23.478;2022-07-06T04:29:01;9.52;;;8.60;;
9934;SDS011;5006;41.828;23.478;2022-07-06T04:30:07;9.80;;;8.77;;
9934;SDS011;5006;41.828;23.478;2022-07-06T04:31:14;9.23;;;8.27;;
9934;SDS011;5006;41.828;23.478;2022-07-06T04:32:22;9.90;;;8.57;;
9934;SDS011;5006;41.828;23.478;2022-07-06T04:33:28;8.82;;;8.00;;
9934;SDS011;5006;41.828;23.478;2022-07-06T04:34:35;8.85;;;8.07;;
9934;SDS011;5006;41.828;23.478;2022-07-06T04:35:40;9.93;;;8.15;;
9934;SDS011;5006;41.828;23.478;2022-07-06T04:36:46;8.50;;;7.80;;
9934;SDS011;5006;41.828;23.478;2022-07-06T04:37:51;9.20;;;8.40;;
9934;SDS011;5006;41.828;23.478;2022-07-06T04:38:58;9.45;;;8.43;;
9934;SDS011;5006;41.828;23.478;2022-07-06T04:40:03;9.65;;;8.63;;
9934;SDS011;5006;41.828;23.478;2022-07-06T04:41:12;9.23;;;8.43;;
9934;SDS011;5006;41.828;23.478;2022-07-06T04:42:16;9.25;;;8.43;;
9934;SDS011;5006;41.828;23.478;2022-07-06T04:43:22;9.23;;;8.43;;
9934;SDS011;5006;41.828;23.478;2022-07-06T04:44:29;11.25;;;9.02;;
9934;SDS011;5006;41.828;23.478;2022-07-06T04:45:33;8.80;;;7.90;;
9934;SDS011;5006;41.828;23.478;2022-07-06T04:46:39;9.10;;;8.30;;
9934;SDS011;5006;41.828;23.478;2022-07-06T04:47:44;8.98;;;7.95;;
9934;SDS011;5006;41.828;23.478;2022-07-06T04:48:50;9.60;;;8.43;;
9934;SDS011;5006;41.828;23.478;2022-07-06T04:50:00;8.02;;;7.32;;
9934;SDS011;5006;41.828;23.478;2022-07-06T04:51:06;9.00;;;8.10;;
9934;SDS011;5006;41.828;23.478;2022-07-06T04:52:11;10.40;;;8.15;;
9934;SDS011;5006;41.828;23.478;2022-07-06T04:53:17;8.45;;;7.65;;
9934;SDS011;5006;41.828;23.478;2022-07-06T04:54:22;9.02;;;8.23;;
9934;SDS011;5006;41.828;23.478;2022-07-06T04:55:27;8.75;;;7.88;;
9934;SDS011;5006;41.828;23.478;2022-07-06T04:56:35;9.25;;;8.35;;
9934;SDS011;5006;41.828;23.478;2022-07-06T04:57:41;9.40;;;8.43;;
9934;SDS011;5006;41.828;23.478;2022-07-06T04:58:46;9.38;;;8.40;;
9934;SDS011;5006;41.828;23.478;2022-07-06T04:59:54;11.17;;;8.30;;
9934;SDS011;5006;41.828;23.478;2022-07-06T05:00:59;9.80;;;8.80;;
9934;SDS011;5006;41.828;23.478;2022-07-06T05:02:05;10.70;;;9.70;;
9934;SDS011;5006;41.828;23.478;2022-07-06T05:03:10;9.77;;;8.98;;
9934;SDS011;5006;41.828;23.478;2022-07-06T05:04:16;9.43;;;8.53;;
9934;SDS011;5006;41.828;23.478;2022-07-06T05:05:22;9.80;;;8.77;;
9934;SDS011;5006;41.828;23.478;2022-07-06T05:06:29;9.53;;;8.63;;
9934;SDS011;5006;41.828;23.478;2022-07-06T05:07:34;10.10;;;8.93;;
9934;SDS011;5006;41.828;23.478;2022-07-06T05:08:43;10.00;;;9.10;;
9934;SDS011;5006;41.828;23.478;2022-07-06T05:09:48;9.00;;;8.13;;
9934;SDS011;5006;41.828;23.478;2022-07-06T05:10:55;8.47;;;7.80;;
9934;SDS011;5006;41.828;23.478;2022-07-06T05:12:02;9.33;;;8.53;;
9934;SDS011;5006;41.828;23.478;2022-07-06T05:13:08;9.23;;;8.23;;
9934;SDS011;5006;41.828;23.478;2022-07-06T05:14:14;9.00;;;8.00;;
9934;SDS011;5006;41.828;23.478;2022-07-06T05:15:19;9.90;;;8.57;;
9934;SDS011;5006;41.828;23.478;2022-07-06T05:16:25;12.20;;;8.40;;
9934;SDS011;5006;41.828;23.478;2022-07-06T05:17:30;9.17;;;8.33;;
9934;SDS011;5006;41.828;23.478;2022-07-06T05:18:38;9.07;;;8.17;;
9934;SDS011;5006;41.828;23.478;2022-07-06T05:19:43;8.90;;;7.90;;
9934;SDS011;5006;41.828;23.478;2022-07-06T05:20:48;8.00;;;7.30;;
9934;SDS011;5006;41.828;23.478;2022-07-06T05:21:53;8.13;;;7.10;;
9934;SDS011;5006;41.828;23.478;2022-07-06T05:22:59;7.57;;;6.60;;
9934;SDS011;5006;41.828;23.478;2022-07-06T05:24:07;10.20;;;7.70;;
9934;SDS011;5006;41.828;23.478;2022-07-06T05:25:13;7.83;;;7.10;;
9934;SDS011;5006;41.828;23.478;2022-07-06T05:26:19;17.63;;;14.67;;
9934;SDS011;5006;41.828;23.478;2022-07-06T05:27:27;8.80;;;7.67;;
9934;SDS011;5006;41.828;23.478;2022-07-06T05:28:32;7.13;;;6.50;;
9934;SDS011;5006;41.828;23.478;2022-07-06T05:29:38;7.00;;;6.00;;
9934;SDS011;5006;41.828;23.478;2022-07-06T05:30:42;7.10;;;6.10;;
9934;SDS011;5006;41.828;23.478;2022-07-06T05:31:49;11.13;;;6.53;;
9934;SDS011;5006;41.828;23.478;2022-07-06T05:32:54;7.20;;;6.50;;
9934;SDS011;5006;41.828;23.478;2022-07-06T05:34:00;7.03;;;6.37;;
9934;SDS011;5006;41.828;23.478;2022-07-06T05:35:06;6.70;;;6.10;;
9934;SDS011;5006;41.828;23.478;2022-07-06T05:36:12;6.40;;;5.83;;
9934;SDS011;5006;41.828;23.478;2022-07-06T05:37:17;6.60;;;5.70;;
9934;SDS011;5006;41.828;23.478;2022-07-06T05:38:24;6.20;;;5.60;;
9934;SDS011;5006;41.828;23.478;2022-07-06T05:39:29;6.83;;;6.07;;
9934;SDS011;5006;41.828;23.478;2022-07-06T05:40:35;8.23;;;6.53;;
9934;SDS011;5006;41.828;23.478;2022-07-06T05:41:40;7.67;;;6.57;;
9934;SDS011;5006;41.828;23.478;2022-07-06T05:42:47;8.30;;;6.90;;
9934;SDS011;5006;41.828;23.478;2022-07-06T05:43:52;7.53;;;6.60;;
9934;SDS011;5006;41.828;23.478;2022-07-06T05:44:57;7.23;;;6.53;;
9934;SDS011;5006;41.828;23.478;2022-07-06T05:46:04;7.50;;;6.80;;
9934;SDS011;5006;41.828;23.478;2022-07-06T05:47:12;7.27;;;6.57;;
9934;SDS011;5006;41.828;23.478;2022-07-06T05:48:36;7.60;;;6.87;;
9934;SDS011;5006;41.828;23.478;2022-07-06T05:49:59;7.53;;;6.80;;
9934;SDS011;5006;41.828;23.478;2022-07-06T05:51:17;7.77;;;7.07;;
9934;SDS011;5006;41.828;23.478;2022-07-06T05:52:24;8.43;;;7.40;;
9934;SDS011;5006;41.828;23.478;2022-07-06T05:53:28;7.57;;;6.87;;
9934;SDS011;5006;41.828;23.478;2022-07-06T05:54:35;7.97;;;7.03;;
9934;SDS011;5006;41.828;23.478;2022-07-06T05:55:40;7.80;;;7.00;;
9934;SDS011;5006;41.828;23.478;2022-07-06T05:56:46;8.17;;;7.37;;
9934;SDS011;5006;41.828;23.478;2022-07-06T05:57:52;8.13;;;7.43;;
9934;SDS011;5006;41.828;23.478;2022-07-06T05:59:00;8.60;;;7.77;;
9934;SDS011;5006;41.828;23.478;2022-07-06T06:00:08;7.87;;;7.17;;
9934;SDS011;5006;41.828;23.478;2022-07-06T06:01:20;8.63;;;7.83;;
9934;SDS011;5006;41.828;23.478;2022-07-06T06:02:38;8.43;;;7.63;;
9934;SDS011;5006;41.828;23.478;2022-07-06T06:03:45;8.80;;;7.50;;
9934;SDS011;5006;41.828;23.478;2022-07-06T06:04:52;9.10;;;8.20;;
9934;SDS011;5006;41.828;23.478;2022-07-06T06:05:57;9.73;;;8.10;;
9934;SDS011;5006;41.828;23.478;2022-07-06T06:07:04;8.93;;;8.03;;
9934;SDS011;5006;41.828;23.478;2022-07-06T06:08:08;8.53;;;7.60;;
9934;SDS011;5006;41.828;23.478;2022-07-06T06:09:14;8.73;;;7.10;;
9934;SDS011;5006;41.828;23.478;2022-07-06T06:10:20;9.83;;;7.70;;
9934;SDS011;5006;41.828;23.478;2022-07-06T06:11:28;8.13;;;7.43;;
9934;SDS011;5006;41.828;23.478;2022-07-06T06:12:33;8.13;;;7.43;;
9934;SDS011;5006;41.828;23.478;2022-07-06T06:13:40;9.20;;;8.30;;
9934;SDS011;5006;41.828;23.478;2022-07-06T06:14:45;8.30;;;7.47;;
9934;SDS011;5006;41.828;23.478;2022-07-06T06:15:50;8.27;;;7.60;;
9934;SDS011;5006;41.828;23.478;2022-07-06T06:16:57;8.63;;;7.70;;
9934;SDS011;5006;41.828;23.478;2022-07-06T06:18:02;8.33;;;7.63;;
9934;SDS011;5006;41.828;23.478;2022-07-06T06:19:09;8.63;;;7.83;;
9934;SDS011;5006;41.828;23.478;2022-07-06T06:20:14;8.60;;;7.83;;
9934;SDS011;5006;41.828;23.478;2022-07-06T06:21:20;7.67;;;7.07;;
9934;SDS011;5006;41.828;23.478;2022-07-06T06:22:25;8.43;;;7.00;;
9934;SDS011;5006;41.828;23.478;2022-07-06T06:23:31;7.77;;;7.17;;
9934;SDS011;5006;41.828;23.478;2022-07-06T06:24:36;9.37;;;8.40;;
9934;SDS011;5006;41.828;23.478;2022-07-06T06:25:41;9.07;;;8.23;;
9934;SDS011;5006;41.828;23.478;2022-07-06T06:26:47;8.27;;;7.47;;
9934;SDS011;5006;41.828;23.478;2022-07-06T06:27:52;8.00;;;7.07;;
9934;SDS011;5006;41.828;23.478;2022-07-06T06:29:00;8.43;;;7.63;;
9934;SDS011;5006;41.828;23.478;2022-07-06T06:30:06;7.77;;;7.13;;
9934;SDS011;5006;41.828;23.478;2022-07-06T06:31:12;8.23;;;7.53;;
9934;SDS011;5006;41.828;23.478;2022-07-06T06:32:17;9.83;;;8.83;;
9934;SDS011;5006;41.828;23.478;2022-07-06T06:33:22;9.10;;;8.20;;
9934;SDS011;5006;41.828;23.478;2022-07-06T06:34:28;8.53;;;7.73;;
9934;SDS011;5006;41.828;23.478;2022-07-06T06:35:32;7.77;;;7.07;;
9934;SDS011;5006;41.828;23.478;2022-07-06T06:36:38;9.57;;;7.53;;
9934;SDS011;5006;41.828;23.478;2022-07-06T06:37:44;8.20;;;7.50;;
9934;SDS011;5006;41.828;23.478;2022-07-06T06:38:49;8.17;;;7.17;;
9934;SDS011;5006;41.828;23.478;2022-07-06T06:39:55;8.10;;;7.30;;
9934;SDS011;5006;41.828;23.478;2022-07-06T06:41:00;7.50;;;6.80;;
9934;SDS011;5006;41.828;23.478;2022-07-06T06:42:07;8.17;;;7.43;;